Terminal Aerodrome Forecast
Issued by NWS

Home | Current Version | Previous Version | Text Only | Print | Product List | Glossary On
Versions: 1 2 3 4 5 6 7 8 9 10 11 12 13
135
FTUS42 KTBW 201722
TAFPGD
TAF
KPGD 201722Z 2018/2118 11007KT P6SM VCTS SCT035CB BKN250
     FM210000 10005KT P6SM VCTS SCT035CB BKN150
     FM210300 09006KT P6SM SCT110 BKN150
     FM211700 10010KT P6SM BKN035 BKN070=

USA.gov is the U.S. government's official web portal to all federal, state and local government web resources and services.